sensor_id;sensor_type;location;lat;lon;timestamp;temperature;humidity
78315;SHT31;68596;52.080;4.662;2023-06-22T00:00:06;21.81;67.46
78315;SHT31;68596;52.080;4.662;2023-06-22T00:02:55;21.82;67.65
78315;SHT31;68596;52.080;4.662;2023-06-22T00:05:39;21.82;67.79
78315;SHT31;68596;52.080;4.662;2023-06-22T00:08:24;21.81;67.90
78315;SHT31;68596;52.080;4.662;2023-06-22T00:11:08;21.78;67.95
78315;SHT31;68596;52.080;4.662;2023-06-22T00:13:52;21.79;68.38
78315;SHT31;68596;52.080;4.662;2023-06-22T00:16:37;21.78;68.27
78315;SHT31;68596;52.080;4.662;2023-06-22T00:19:21;21.81;68.53
78315;SHT31;68596;52.080;4.662;2023-06-22T00:22:05;21.83;68.32
78315;SHT31;68596;52.080;4.662;2023-06-22T00:24:49;21.82;68.45
78315;SHT31;68596;52.080;4.662;2023-06-22T00:27:34;21.76;68.35
78315;SHT31;68596;52.080;4.662;2023-06-22T00:30:19;21.76;67.88
78315;SHT31;68596;52.080;4.662;2023-06-22T00:33:03;21.72;68.11
78315;SHT31;68596;52.080;4.662;2023-06-22T00:35:47;21.71;68.16
78315;SHT31;68596;52.080;4.662;2023-06-22T00:38:31;21.71;68.21
78315;SHT31;68596;52.080;4.662;2023-06-22T00:41:15;21.71;68.12
78315;SHT31;68596;52.080;4.662;2023-06-22T00:43:59;21.66;67.90
78315;SHT31;68596;52.080;4.662;2023-06-22T00:46:44;21.63;67.82
78315;SHT31;68596;52.080;4.662;2023-06-22T00:49:29;21.59;67.74
78315;SHT31;68596;52.080;4.662;2023-06-22T00:52:14;21.58;67.83
78315;SHT31;68596;52.080;4.662;2023-06-22T00:55:05;21.58;68.26
78315;SHT31;68596;52.080;4.662;2023-06-22T00:57:52;21.56;68.47
78315;SHT31;68596;52.080;4.662;2023-06-22T01:00:41;21.58;68.36
78315;SHT31;68596;52.080;4.662;2023-06-22T01:03:26;21.56;68.41
78315;SHT31;68596;52.080;4.662;2023-06-22T01:06:21;21.52;68.46
78315;SHT31;68596;52.080;4.662;2023-06-22T01:09:25;21.54;68.53
78315;SHT31;68596;52.080;4.662;2023-06-22T01:12:12;21.52;68.54
78315;SHT31;68596;52.080;4.662;2023-06-22T01:15:10;21.52;68.58
78315;SHT31;68596;52.080;4.662;2023-06-22T01:17:57;21.48;68.51
78315;SHT31;68596;52.080;4.662;2023-06-22T01:20:43;21.51;68.43
78315;SHT31;68596;52.080;4.662;2023-06-22T01:27:07;21.45;68.46
78315;SHT31;68596;52.080;4.662;2023-06-22T01:29:56;21.44;68.51
78315;SHT31;68596;52.080;4.662;2023-06-22T01:32:44;21.42;68.76
78315;SHT31;68596;52.080;4.662;2023-06-22T01:35:30;21.42;68.72
78315;SHT31;68596;52.080;4.662;2023-06-22T01:38:15;21.41;69.01
78315;SHT31;68596;52.080;4.662;2023-06-22T01:41:01;21.42;68.98
78315;SHT31;68596;52.080;4.662;2023-06-22T01:43:47;21.41;68.90
78315;SHT31;68596;52.080;4.662;2023-06-22T01:46:33;21.35;68.71
78315;SHT31;68596;52.080;4.662;2023-06-22T01:49:18;21.35;68.70
78315;SHT31;68596;52.080;4.662;2023-06-22T01:52:03;21.35;68.42
78315;SHT31;68596;52.080;4.662;2023-06-22T01:54:48;21.39;68.50
78315;SHT31;68596;52.080;4.662;2023-06-22T01:57:32;21.44;68.47
78315;SHT31;68596;52.080;4.662;2023-06-22T02:00:21;21.42;68.66
78315;SHT31;68596;52.080;4.662;2023-06-22T02:03:14;21.41;68.81
78315;SHT31;68596;52.080;4.662;2023-06-22T02:06:06;21.41;68.63
78315;SHT31;68596;52.080;4.662;2023-06-22T02:08:57;21.41;68.65
78315;SHT31;68596;52.080;4.662;2023-06-22T02:11:46;21.38;68.50
78315;SHT31;68596;52.080;4.662;2023-06-22T02:14:31;21.30;68.52
78315;SHT31;68596;52.080;4.662;2023-06-22T02:17:17;21.27;68.48
78315;SHT31;68596;52.080;4.662;2023-06-22T02:20:03;21.21;68.70
78315;SHT31;68596;52.080;4.662;2023-06-22T02:22:52;21.21;68.82
78315;SHT31;68596;52.080;4.662;2023-06-22T02:25:36;21.21;68.88
78315;SHT31;68596;52.080;4.662;2023-06-22T02:28:20;21.18;69.02
78315;SHT31;68596;52.080;4.662;2023-06-22T02:31:04;21.20;69.02
78315;SHT31;68596;52.080;4.662;2023-06-22T02:33:48;21.21;68.75
78315;SHT31;68596;52.080;4.662;2023-06-22T02:36:33;21.22;68.64
78315;SHT31;68596;52.080;4.662;2023-06-22T02:39:22;21.27;68.80
78315;SHT31;68596;52.080;4.662;2023-06-22T02:42:06;21.27;68.82
78315;SHT31;68596;52.080;4.662;2023-06-22T02:44:50;21.24;68.96
78315;SHT31;68596;52.080;4.662;2023-06-22T02:47:35;21.21;68.73
78315;SHT31;68596;52.080;4.662;2023-06-22T02:50:19;21.21;68.79
78315;SHT31;68596;52.080;4.662;2023-06-22T02:53:03;21.20;68.73
78315;SHT31;68596;52.080;4.662;2023-06-22T02:55:47;21.18;68.33
78315;SHT31;68596;52.080;4.662;2023-06-22T02:58:32;21.24;68.31
78315;SHT31;68596;52.080;4.662;2023-06-22T03:01:22;21.27;68.67
78315;SHT31;68596;52.080;4.662;2023-06-22T03:04:08;21.27;68.51
78315;SHT31;68596;52.080;4.662;2023-06-22T03:06:53;21.24;68.51
78315;SHT31;68596;52.080;4.662;2023-06-22T03:09:37;21.20;68.82
78315;SHT31;68596;52.080;4.662;2023-06-22T03:12:21;21.18;68.60
78315;SHT31;68596;52.080;4.662;2023-06-22T03:15:06;21.18;68.73
78315;SHT31;68596;52.080;4.662;2023-06-22T03:17:51;21.18;68.64
78315;SHT31;68596;52.080;4.662;2023-06-22T03:20:35;21.12;68.74
78315;SHT31;68596;52.080;4.662;2023-06-22T03:23:19;21.11;68.58
78315;SHT31;68596;52.080;4.662;2023-06-22T03:26:03;21.10;68.67
78315;SHT31;68596;52.080;4.662;2023-06-22T03:28:48;21.14;68.26
78315;SHT31;68596;52.080;4.662;2023-06-22T03:31:32;21.15;68.27
78315;SHT31;68596;52.080;4.662;2023-06-22T03:34:16;21.17;68.49
78315;SHT31;68596;52.080;4.662;2023-06-22T03:37:00;21.18;68.30
78315;SHT31;68596;52.080;4.662;2023-06-22T03:39:45;21.17;68.14
78315;SHT31;68596;52.080;4.662;2023-06-22T03:42:29;21.20;67.99
78315;SHT31;68596;52.080;4.662;2023-06-22T03:45:13;21.21;68.29
78315;SHT31;68596;52.080;4.662;2023-06-22T03:47:57;21.24;68.07
78315;SHT31;68596;52.080;4.662;2023-06-22T03:50:41;21.22;68.07
78315;SHT31;68596;52.080;4.662;2023-06-22T03:53:28;21.21;68.26
78315;SHT31;68596;52.080;4.662;2023-06-22T03:56:12;21.20;68.21
78315;SHT31;68596;52.080;4.662;2023-06-22T03:58:56;21.21;68.08
78315;SHT31;68596;52.080;4.662;2023-06-22T04:01:40;21.20;68.31
78315;SHT31;68596;52.080;4.662;2023-06-22T04:04:25;21.17;68.55
78315;SHT31;68596;52.080;4.662;2023-06-22T04:07:09;21.17;68.71
78315;SHT31;68596;52.080;4.662;2023-06-22T04:09:53;21.12;68.64
78315;SHT31;68596;52.080;4.662;2023-06-22T04:12:37;21.15;68.79
78315;SHT31;68596;52.080;4.662;2023-06-22T04:15:21;21.17;68.53
78315;SHT31;68596;52.080;4.662;2023-06-22T04:18:05;21.20;68.60
78315;SHT31;68596;52.080;4.662;2023-06-22T04:20:49;21.25;68.80
78315;SHT31;68596;52.080;4.662;2023-06-22T04:23:33;21.27;69.11
78315;SHT31;68596;52.080;4.662;2023-06-22T04:26:17;21.27;69.28
78315;SHT31;68596;52.080;4.662;2023-06-22T04:29:04;21.27;69.23
78315;SHT31;68596;52.080;4.662;2023-06-22T04:31:49;21.31;69.41
78315;SHT31;68596;52.080;4.662;2023-06-22T04:34:34;21.32;69.42
78315;SHT31;68596;52.080;4.662;2023-06-22T04:37:18;21.34;69.40
78315;SHT31;68596;52.080;4.662;2023-06-22T04:40:03;21.39;69.32
78315;SHT31;68596;52.080;4.662;2023-06-22T04:42:49;21.42;69.52
78315;SHT31;68596;52.080;4.662;2023-06-22T04:45:37;21.42;69.36
78315;SHT31;68596;52.080;4.662;2023-06-22T04:48:24;21.49;69.34
78315;SHT31;68596;52.080;4.662;2023-06-22T04:51:08;21.49;69.20
78315;SHT31;68596;52.080;4.662;2023-06-22T04:53:52;21.55;69.22
78315;SHT31;68596;52.080;4.662;2023-06-22T04:56:44;21.58;69.42
78315;SHT31;68596;52.080;4.662;2023-06-22T04:59:31;21.62;69.47
78315;SHT31;68596;52.080;4.662;2023-06-22T05:02:16;21.65;69.37
78315;SHT31;68596;52.080;4.662;2023-06-22T05:05:00;21.67;69.33
78315;SHT31;68596;52.080;4.662;2023-06-22T05:07:50;21.72;69.56
78315;SHT31;68596;52.080;4.662;2023-06-22T05:10:36;21.73;69.19
78315;SHT31;68596;52.080;4.662;2023-06-22T05:13:20;21.76;69.33
78315;SHT31;68596;52.080;4.662;2023-06-22T05:16:06;21.79;69.39
78315;SHT31;68596;52.080;4.662;2023-06-22T05:18:54;21.83;69.31
78315;SHT31;68596;52.080;4.662;2023-06-22T05:21:39;21.85;68.84
78315;SHT31;68596;52.080;4.662;2023-06-22T05:24:23;21.90;69.08
78315;SHT31;68596;52.080;4.662;2023-06-22T05:27:07;21.95;69.25
78315;SHT31;68596;52.080;4.662;2023-06-22T05:29:51;21.99;69.03
78315;SHT31;68596;52.080;4.662;2023-06-22T05:32:36;22.06;68.49
78315;SHT31;68596;52.080;4.662;2023-06-22T05:35:20;22.07;68.54
78315;SHT31;68596;52.080;4.662;2023-06-22T05:38:04;22.12;68.78
78315;SHT31;68596;52.080;4.662;2023-06-22T05:40:48;22.14;68.64
78315;SHT31;68596;52.080;4.662;2023-06-22T05:43:32;22.14;68.43
78315;SHT31;68596;52.080;4.662;2023-06-22T05:46:16;22.18;68.29
78315;SHT31;68596;52.080;4.662;2023-06-22T05:49:01;22.24;68.58
78315;SHT31;68596;52.080;4.662;2023-06-22T05:51:45;22.24;68.23
78315;SHT31;68596;52.080;4.662;2023-06-22T05:54:30;22.29;68.44
78315;SHT31;68596;52.080;4.662;2023-06-22T05:57:16;22.30;68.58
78315;SHT31;68596;52.080;4.662;2023-06-22T06:00:00;22.35;68.22
78315;SHT31;68596;52.080;4.662;2023-06-22T06:02:44;22.36;68.15
78315;SHT31;68596;52.080;4.662;2023-06-22T06:05:33;22.37;68.24
78315;SHT31;68596;52.080;4.662;2023-06-22T06:08:17;22.39;68.43
78315;SHT31;68596;52.080;4.662;2023-06-22T06:11:01;22.44;68.20
78315;SHT31;68596;52.080;4.662;2023-06-22T06:13:46;22.46;68.51
78315;SHT31;68596;52.080;4.662;2023-06-22T06:16:30;22.46;68.06
78315;SHT31;68596;52.080;4.662;2023-06-22T06:19:16;22.51;68.37
78315;SHT31;68596;52.080;4.662;2023-06-22T06:22:00;22.57;68.19
78315;SHT31;68596;52.080;4.662;2023-06-22T06:24:46;22.57;68.02
78315;SHT31;68596;52.080;4.662;2023-06-22T06:27:31;22.58;67.93
78315;SHT31;68596;52.080;4.662;2023-06-22T06:30:17;22.60;67.94
78315;SHT31;68596;52.080;4.662;2023-06-22T06:33:02;22.65;68.11
78315;SHT31;68596;52.080;4.662;2023-06-22T06:35:46;22.67;67.96
78315;SHT31;68596;52.080;4.662;2023-06-22T06:38:31;22.68;67.96
78315;SHT31;68596;52.080;4.662;2023-06-22T06:41:16;22.71;67.85
78315;SHT31;68596;52.080;4.662;2023-06-22T06:44:00;22.74;68.20
78315;SHT31;68596;52.080;4.662;2023-06-22T06:46:48;22.75;67.97
78315;SHT31;68596;52.080;4.662;2023-06-22T06:49:33;22.79;68.10
78315;SHT31;68596;52.080;4.662;2023-06-22T06:52:17;22.84;67.91
78315;SHT31;68596;52.080;4.662;2023-06-22T06:55:01;22.87;67.55
78315;SHT31;68596;52.080;4.662;2023-06-22T06:57:49;22.91;68.02
78315;SHT31;68596;52.080;4.662;2023-06-22T07:00:33;22.95;67.54
78315;SHT31;68596;52.080;4.662;2023-06-22T07:03:19;22.99;67.81
78315;SHT31;68596;52.080;4.662;2023-06-22T07:06:03;23.04;67.88
78315;SHT31;68596;52.080;4.662;2023-06-22T07:08:48;23.08;67.63
78315;SHT31;68596;52.080;4.662;2023-06-22T07:11:33;23.11;67.36
78315;SHT31;68596;52.080;4.662;2023-06-22T07:14:19;23.16;67.38
78315;SHT31;68596;52.080;4.662;2023-06-22T07:17:03;23.22;67.41
78315;SHT31;68596;52.080;4.662;2023-06-22T07:19:47;23.26;67.32
78315;SHT31;68596;52.080;4.662;2023-06-22T07:22:31;23.31;67.50
78315;SHT31;68596;52.080;4.662;2023-06-22T07:25:16;23.39;67.11
78315;SHT31;68596;52.080;4.662;2023-06-22T07:28:03;23.42;66.80
78315;SHT31;68596;52.080;4.662;2023-06-22T07:30:48;23.46;67.03
78315;SHT31;68596;52.080;4.662;2023-06-22T07:33:32;23.50;66.87
78315;SHT31;68596;52.080;4.662;2023-06-22T07:36:17;23.53;66.92
78315;SHT31;68596;52.080;4.662;2023-06-22T07:39:02;23.60;66.65
78315;SHT31;68596;52.080;4.662;2023-06-22T07:41:47;23.65;65.82
78315;SHT31;68596;52.080;4.662;2023-06-22T07:44:31;23.67;65.94
78315;SHT31;68596;52.080;4.662;2023-06-22T07:47:15;23.69;66.09
78315;SHT31;68596;52.080;4.662;2023-06-22T07:50:03;23.74;65.92
78315;SHT31;68596;52.080;4.662;2023-06-22T07:52:47;23.79;66.24
78315;SHT31;68596;52.080;4.662;2023-06-22T07:55:31;23.84;65.28
78315;SHT31;68596;52.080;4.662;2023-06-22T07:58:16;23.89;63.84
78315;SHT31;68596;52.080;4.662;2023-06-22T08:01:03;23.90;64.10
78315;SHT31;68596;52.080;4.662;2023-06-22T08:03:48;23.90;63.32
78315;SHT31;68596;52.080;4.662;2023-06-22T08:06:32;23.92;63.56
78315;SHT31;68596;52.080;4.662;2023-06-22T08:09:16;23.93;63.43
78315;SHT31;68596;52.080;4.662;2023-06-22T08:12:00;23.99;63.29
78315;SHT31;68596;52.080;4.662;2023-06-22T08:14:44;24.03;63.35
78315;SHT31;68596;52.080;4.662;2023-06-22T08:17:30;24.03;63.71
78315;SHT31;68596;52.080;4.662;2023-06-22T08:20:16;24.04;63.73
78315;SHT31;68596;52.080;4.662;2023-06-22T08:23:01;24.10;63.91
78315;SHT31;68596;52.080;4.662;2023-06-22T08:25:49;24.14;64.03
78315;SHT31;68596;52.080;4.662;2023-06-22T08:28:34;24.17;64.60
78315;SHT31;68596;52.080;4.662;2023-06-22T08:31:18;24.24;64.72
78315;SHT31;68596;52.080;4.662;2023-06-22T08:34:02;24.31;65.06
78315;SHT31;68596;52.080;4.662;2023-06-22T08:36:47;24.40;64.41
78315;SHT31;68596;52.080;4.662;2023-06-22T08:39:35;24.47;64.63
78315;SHT31;68596;52.080;4.662;2023-06-22T08:42:19;24.53;64.74
78315;SHT31;68596;52.080;4.662;2023-06-22T08:45:03;24.61;64.09
78315;SHT31;68596;52.080;4.662;2023-06-22T08:47:48;24.64;64.15
78315;SHT31;68596;52.080;4.662;2023-06-22T08:50:32;24.68;64.16
78315;SHT31;68596;52.080;4.662;2023-06-22T08:53:16;24.75;64.28
78315;SHT31;68596;52.080;4.662;2023-06-22T08:56:00;24.78;63.53
78315;SHT31;68596;52.080;4.662;2023-06-22T08:58:44;24.81;63.83
78315;SHT31;68596;52.080;4.662;2023-06-22T09:01:28;24.81;63.47
78315;SHT31;68596;52.080;4.662;2023-06-22T09:04:12;24.84;63.56
78315;SHT31;68596;52.080;4.662;2023-06-22T09:06:56;24.88;63.20
78315;SHT31;68596;52.080;4.662;2023-06-22T09:09:40;24.89;63.10
78315;SHT31;68596;52.080;4.662;2023-06-22T09:12:24;24.86;63.09
78315;SHT31;68596;52.080;4.662;2023-06-22T09:15:10;24.86;63.49
78315;SHT31;68596;52.080;4.662;2023-06-22T09:17:54;24.91;63.00
78315;SHT31;68596;52.080;4.662;2023-06-22T09:20:39;24.94;62.93
78315;SHT31;68596;52.080;4.662;2023-06-22T09:23:23;24.98;63.25
78315;SHT31;68596;52.080;4.662;2023-06-22T09:26:08;24.96;63.10
78315;SHT31;68596;52.080;4.662;2023-06-22T09:28:52;25.04;63.29
78315;SHT31;68596;52.080;4.662;2023-06-22T09:31:36;25.05;62.66
78315;SHT31;68596;52.080;4.662;2023-06-22T09:34:21;25.09;62.47
78315;SHT31;68596;52.080;4.662;2023-06-22T09:37:05;25.09;62.56
78315;SHT31;68596;52.080;4.662;2023-06-22T09:39:49;25.11;62.18
78315;SHT31;68596;52.080;4.662;2023-06-22T09:42:34;25.08;62.01
78315;SHT31;68596;52.080;4.662;2023-06-22T09:45:18;25.08;61.94
78315;SHT31;68596;52.080;4.662;2023-06-22T09:48:02;25.12;62.18
78315;SHT31;68596;52.080;4.662;2023-06-22T09:50:46;25.15;61.95
78315;SHT31;68596;52.080;4.662;2023-06-22T09:53:31;25.15;61.98
78315;SHT31;68596;52.080;4.662;2023-06-22T09:56:16;25.16;61.47
78315;SHT31;68596;52.080;4.662;2023-06-22T09:59:00;25.14;61.25
78315;SHT31;68596;52.080;4.662;2023-06-22T10:01:44;25.12;61.09
78315;SHT31;68596;52.080;4.662;2023-06-22T10:04:28;25.12;60.76
78315;SHT31;68596;52.080;4.662;2023-06-22T10:07:12;25.11;60.88
78315;SHT31;68596;52.080;4.662;2023-06-22T10:09:56;25.11;61.64
78315;SHT31;68596;52.080;4.662;2023-06-22T10:12:55;25.11;61.70
78315;SHT31;68596;52.080;4.662;2023-06-22T10:15:39;25.14;60.86
78315;SHT31;68596;52.080;4.662;2023-06-22T10:18:24;25.15;60.64
78315;SHT31;68596;52.080;4.662;2023-06-22T10:21:08;25.14;60.85
78315;SHT31;68596;52.080;4.662;2023-06-22T10:23:53;25.12;60.74
78315;SHT31;68596;52.080;4.662;2023-06-22T10:26:37;25.14;60.62
78315;SHT31;68596;52.080;4.662;2023-06-22T10:29:21;25.11;60.23
78315;SHT31;68596;52.080;4.662;2023-06-22T10:32:05;25.12;60.48
78315;SHT31;68596;52.080;4.662;2023-06-22T10:34:49;25.14;60.14
78315;SHT31;68596;52.080;4.662;2023-06-22T10:37:33;25.12;59.75
78315;SHT31;68596;52.080;4.662;2023-06-22T10:40:17;25.14;59.62
78315;SHT31;68596;52.080;4.662;2023-06-22T10:43:02;25.12;59.58
78315;SHT31;68596;52.080;4.662;2023-06-22T10:45:46;25.12;60.05
78315;SHT31;68596;52.080;4.662;2023-06-22T10:48:30;25.14;60.33
78315;SHT31;68596;52.080;4.662;2023-06-22T10:51:14;25.16;59.75
78315;SHT31;68596;52.080;4.662;2023-06-22T10:53:58;25.14;59.84
78315;SHT31;68596;52.080;4.662;2023-06-22T10:56:42;25.15;59.48
78315;SHT31;68596;52.080;4.662;2023-06-22T10:59:27;25.12;59.21
78315;SHT31;68596;52.080;4.662;2023-06-22T11:02:12;25.11;59.26
78315;SHT31;68596;52.080;4.662;2023-06-22T11:04:56;25.14;58.46
78315;SHT31;68596;52.080;4.662;2023-06-22T11:07:44;25.14;59.42
78315;SHT31;68596;52.080;4.662;2023-06-22T11:10:28;25.12;59.57
78315;SHT31;68596;52.080;4.662;2023-06-22T11:13:12;25.14;59.81
78315;SHT31;68596;52.080;4.662;2023-06-22T11:15:56;25.16;60.60
78315;SHT31;68596;52.080;4.662;2023-06-22T11:18:40;25.19;60.81
78315;SHT31;68596;52.080;4.662;2023-06-22T11:21:24;25.19;60.66
78315;SHT31;68596;52.080;4.662;2023-06-22T11:24:09;25.20;60.78
78315;SHT31;68596;52.080;4.662;2023-06-22T11:26:53;25.19;60.88
78315;SHT31;68596;52.080;4.662;2023-06-22T11:29:37;25.20;60.76
78315;SHT31;68596;52.080;4.662;2023-06-22T11:32:23;25.22;60.74
78315;SHT31;68596;52.080;4.662;2023-06-22T11:35:07;25.25;60.76
78315;SHT31;68596;52.080;4.662;2023-06-22T11:37:52;25.20;60.94
78315;SHT31;68596;52.080;4.662;2023-06-22T11:40:36;25.23;61.27
78315;SHT31;68596;52.080;4.662;2023-06-22T11:43:20;25.26;61.32
78315;SHT31;68596;52.080;4.662;2023-06-22T11:46:04;25.23;61.39
78315;SHT31;68596;52.080;4.662;2023-06-22T11:48:49;25.26;61.92
78315;SHT31;68596;52.080;4.662;2023-06-22T11:51:33;25.27;62.28
78315;SHT31;68596;52.080;4.662;2023-06-22T11:54:17;25.27;62.44
78315;SHT31;68596;52.080;4.662;2023-06-22T11:57:01;25.27;62.68
78315;SHT31;68596;52.080;4.662;2023-06-22T11:59:46;25.32;62.96
78315;SHT31;68596;52.080;4.662;2023-06-22T12:02:30;25.33;63.02
78315;SHT31;68596;52.080;4.662;2023-06-22T12:05:14;25.35;63.05
78315;SHT31;68596;52.080;4.662;2023-06-22T12:07:58;25.39;63.36
78315;SHT31;68596;52.080;4.662;2023-06-22T12:10:42;25.36;63.38
78315;SHT31;68596;52.080;4.662;2023-06-22T12:13:26;25.40;63.67
78315;SHT31;68596;52.080;4.662;2023-06-22T12:16:10;25.43;63.60
78315;SHT31;68596;52.080;4.662;2023-06-22T12:18:56;25.42;63.98
78315;SHT31;68596;52.080;4.662;2023-06-22T12:21:40;25.42;63.74
78315;SHT31;68596;52.080;4.662;2023-06-22T12:24:24;25.42;63.78
78315;SHT31;68596;52.080;4.662;2023-06-22T12:27:09;25.43;63.69
78315;SHT31;68596;52.080;4.662;2023-06-22T12:29:53;25.40;64.08
78315;SHT31;68596;52.080;4.662;2023-06-22T12:32:37;25.40;63.94
78315;SHT31;68596;52.080;4.662;2023-06-22T12:35:21;25.45;64.09
78315;SHT31;68596;52.080;4.662;2023-06-22T12:38:05;25.47;64.04
78315;SHT31;68596;52.080;4.662;2023-06-22T12:40:51;25.45;64.08
78315;SHT31;68596;52.080;4.662;2023-06-22T12:43:36;25.43;64.39
78315;SHT31;68596;52.080;4.662;2023-06-22T12:46:20;25.43;64.43
78315;SHT31;68596;52.080;4.662;2023-06-22T12:49:04;25.46;64.46
78315;SHT31;68596;52.080;4.662;2023-06-22T12:51:49;25.45;64.68
78315;SHT31;68596;52.080;4.662;2023-06-22T12:54:33;25.45;64.42
78315;SHT31;68596;52.080;4.662;2023-06-22T12:57:17;25.40;64.76
78315;SHT31;68596;52.080;4.662;2023-06-22T13:00:01;25.42;64.92
78315;SHT31;68596;52.080;4.662;2023-06-22T13:02:46;25.39;65.24
78315;SHT31;68596;52.080;4.662;2023-06-22T13:05:30;25.42;65.67
78315;SHT31;68596;52.080;4.662;2023-06-22T13:08:15;25.45;65.90
78315;SHT31;68596;52.080;4.662;2023-06-22T13:11:00;25.40;65.95
78315;SHT31;68596;52.080;4.662;2023-06-22T13:13:46;25.43;65.56
78315;SHT31;68596;52.080;4.662;2023-06-22T13:16:30;25.42;65.42
78315;SHT31;68596;52.080;4.662;2023-06-22T13:19:14;25.39;65.46
78315;SHT31;68596;52.080;4.662;2023-06-22T13:21:59;25.39;65.41
78315;SHT31;68596;52.080;4.662;2023-06-22T13:24:43;25.37;65.38
78315;SHT31;68596;52.080;4.662;2023-06-22T13:27:27;25.37;65.38
78315;SHT31;68596;52.080;4.662;2023-06-22T13:30:12;25.37;65.49
78315;SHT31;68596;52.080;4.662;2023-06-22T13:32:56;25.36;65.51
78315;SHT31;68596;52.080;4.662;2023-06-22T13:35:41;25.35;65.53
78315;SHT31;68596;52.080;4.662;2023-06-22T13:38:28;25.35;65.49
78315;SHT31;68596;52.080;4.662;2023-06-22T13:41:12;25.33;65.49
78315;SHT31;68596;52.080;4.662;2023-06-22T13:43:57;25.33;65.48
78315;SHT31;68596;52.080;4.662;2023-06-22T13:46:40;25.33;65.38
78315;SHT31;68596;52.080;4.662;2023-06-22T13:49:24;25.32;65.58
78315;SHT31;68596;52.080;4.662;2023-06-22T13:52:10;25.32;65.44
78315;SHT31;68596;52.080;4.662;2023-06-22T13:54:56;25.29;65.34
78315;SHT31;68596;52.080;4.662;2023-06-22T13:57:41;25.29;65.32
78315;SHT31;68596;52.080;4.662;2023-06-22T14:00:25;25.30;65.19
78315;SHT31;68596;52.080;4.662;2023-06-22T14:03:09;25.27;65.17
78315;SHT31;68596;52.080;4.662;2023-06-22T14:05:53;25.27;65.27
78315;SHT31;68596;52.080;4.662;2023-06-22T14:08:39;25.26;64.93
78315;SHT31;68596;52.080;4.662;2023-06-22T14:11:24;25.25;65.17
78315;SHT31;68596;52.080;4.662;2023-06-22T14:14:08;25.23;65.16
78315;SHT31;68596;52.080;4.662;2023-06-22T14:16:52;25.22;65.14
78315;SHT31;68596;52.080;4.662;2023-06-22T14:19:37;25.23;65.24
78315;SHT31;68596;52.080;4.662;2023-06-22T14:22:22;25.22;65.33
78315;SHT31;68596;52.080;4.662;2023-06-22T14:25:06;25.23;65.52
78315;SHT31;68596;52.080;4.662;2023-06-22T14:27:51;25.22;65.87
78315;SHT31;68596;52.080;4.662;2023-06-22T14:30:34;25.22;65.82
78315;SHT31;68596;52.080;4.662;2023-06-22T14:33:18;25.22;65.61
78315;SHT31;68596;52.080;4.662;2023-06-22T14:36:03;25.20;65.23
78315;SHT31;68596;52.080;4.662;2023-06-22T14:38:47;25.19;65.19
78315;SHT31;68596;52.080;4.662;2023-06-22T14:41:31;25.16;64.91
78315;SHT31;68596;52.080;4.662;2023-06-22T14:44:16;25.14;64.38
78315;SHT31;68596;52.080;4.662;2023-06-22T14:47:00;25.11;63.73
78315;SHT31;68596;52.080;4.662;2023-06-22T14:49:44;25.08;63.74
78315;SHT31;68596;52.080;4.662;2023-06-22T14:52:28;25.02;63.20
78315;SHT31;68596;52.080;4.662;2023-06-22T14:55:12;24.96;63.29
78315;SHT31;68596;52.080;4.662;2023-06-22T14:57:56;24.95;63.03
78315;SHT31;68596;52.080;4.662;2023-06-22T15:00:40;24.91;63.01
78315;SHT31;68596;52.080;4.662;2023-06-22T15:03:24;24.84;63.03
78315;SHT31;68596;52.080;4.662;2023-06-22T15:06:12;24.78;62.82
78315;SHT31;68596;52.080;4.662;2023-06-22T15:08:56;24.74;62.76
78315;SHT31;68596;52.080;4.662;2023-06-22T15:11:40;24.67;63.01
78315;SHT31;68596;52.080;4.662;2023-06-22T15:14:25;24.63;63.06
78315;SHT31;68596;52.080;4.662;2023-06-22T15:17:09;24.60;63.27
78315;SHT31;68596;52.080;4.662;2023-06-22T15:19:54;24.54;63.29
78315;SHT31;68596;52.080;4.662;2023-06-22T15:22:39;24.55;63.31
78315;SHT31;68596;52.080;4.662;2023-06-22T15:25:23;24.55;63.33
78315;SHT31;68596;52.080;4.662;2023-06-22T15:28:07;24.50;63.40
78315;SHT31;68596;52.080;4.662;2023-06-22T15:30:51;24.47;63.57
78315;SHT31;68596;52.080;4.662;2023-06-22T15:33:36;24.44;63.75
78315;SHT31;68596;52.080;4.662;2023-06-22T15:36:21;24.44;63.64
78315;SHT31;68596;52.080;4.662;2023-06-22T15:39:05;24.41;63.79
78315;SHT31;68596;52.080;4.662;2023-06-22T15:41:49;24.40;63.80
78315;SHT31;68596;52.080;4.662;2023-06-22T15:44:33;24.40;64.30
78315;SHT31;68596;52.080;4.662;2023-06-22T15:47:17;24.40;63.91
78315;SHT31;68596;52.080;4.662;2023-06-22T15:50:05;24.37;64.20
78315;SHT31;68596;52.080;4.662;2023-06-22T15:52:49;24.35;64.65
78315;SHT31;68596;52.080;4.662;2023-06-22T15:55:34;24.31;65.31
78315;SHT31;68596;52.080;4.662;2023-06-22T15:58:18;24.27;65.69
78315;SHT31;68596;52.080;4.662;2023-06-22T16:01:03;24.25;65.58
78315;SHT31;68596;52.080;4.662;2023-06-22T16:03:49;24.21;66.16
78315;SHT31;68596;52.080;4.662;2023-06-22T16:06:34;24.17;66.31
78315;SHT31;68596;52.080;4.662;2023-06-22T16:09:19;24.16;66.42
78315;SHT31;68596;52.080;4.662;2023-06-22T16:12:04;24.13;66.16
78315;SHT31;68596;52.080;4.662;2023-06-22T16:14:50;24.13;66.38
78315;SHT31;68596;52.080;4.662;2023-06-22T16:17:34;24.11;66.42
78315;SHT31;68596;52.080;4.662;2023-06-22T16:20:21;24.14;66.69
78315;SHT31;68596;52.080;4.662;2023-06-22T16:23:06;24.10;66.21
78315;SHT31;68596;52.080;4.662;2023-06-22T16:25:50;24.10;66.51
78315;SHT31;68596;52.080;4.662;2023-06-22T16:28:34;24.11;66.67
78315;SHT31;68596;52.080;4.662;2023-06-22T16:31:18;24.07;66.75
78315;SHT31;68596;52.080;4.662;2023-06-22T16:34:02;24.06;66.94
78315;SHT31;68596;52.080;4.662;2023-06-22T16:36:47;24.06;67.23
78315;SHT31;68596;52.080;4.662;2023-06-22T16:39:31;24.04;67.21
78315;SHT31;68596;52.080;4.662;2023-06-22T16:42:16;24.04;66.93
78315;SHT31;68596;52.080;4.662;2023-06-22T16:45:01;24.03;66.84
78315;SHT31;68596;52.080;4.662;2023-06-22T16:47:48;24.03;66.91
78315;SHT31;68596;52.080;4.662;2023-06-22T16:50:32;24.03;66.76
78315;SHT31;68596;52.080;4.662;2023-06-22T16:53:17;24.00;66.81
78315;SHT31;68596;52.080;4.662;2023-06-22T16:56:03;24.00;66.67
78315;SHT31;68596;52.080;4.662;2023-06-22T16:58:47;23.99;66.34
78315;SHT31;68596;52.080;4.662;2023-06-22T17:01:33;24.00;66.07
78315;SHT31;68596;52.080;4.662;2023-06-22T17:04:21;23.97;66.29
78315;SHT31;68596;52.080;4.662;2023-06-22T17:07:11;23.97;66.51
78315;SHT31;68596;52.080;4.662;2023-06-22T17:09:57;23.94;66.92
78315;SHT31;68596;52.080;4.662;2023-06-22T17:12:41;23.93;67.27
78315;SHT31;68596;52.080;4.662;2023-06-22T17:15:28;23.86;67.13
78315;SHT31;68596;52.080;4.662;2023-06-22T17:18:16;23.84;67.42
78315;SHT31;68596;52.080;4.662;2023-06-22T17:21:01;23.77;67.45
78315;SHT31;68596;52.080;4.662;2023-06-22T17:23:47;23.70;67.91